Time;durP1;ratioP1;P1;durP2;ratioP2;P2;SDS_P1;SDS_P2;PMS_P1;PMS_P2;Temp;Humidity;BMP_temperature;BMP_pressure;BME280_temperature;BME280_humidity;BME280_pressure;Samples;Min_cycle;Max_cycle;Signal;HPM_P1;HPM_P2
2022/11/05 00:16:42;;;;;;;10.00;2.50;;;11.30;99.90;;;11.67;97.72;100389.69;5050218;28;20660;-67
2022/11/05 00:16:54;;;;;;;2.97;1.87;;;11.30;99.90;;;11.58;97.84;100395.66;5034520;28;20663;-68
2022/11/05 00:19:20;;;;;;;2.13;1.83;;;11.30;99.90;;;11.52;98.39;100398.75;5050407;28;22707;-67
2022/11/05 00:27:18;;;;;;;2.03;1.93;;;11.20;99.90;;;11.50;99.81;100403.25;5069547;28;20647;-65
2022/11/05 00:29:44;;;;;;;2.27;2.07;;;11.20;99.90;;;11.45;99.58;100406.25;5055353;28;20668;-68
2022/11/05 00:32:11;;;;;;;2.30;2.10;;;11.10;99.90;;;11.48;98.81;100413.81;5050902;28;20611;-68
2022/11/05 00:34:38;;;;;;;2.03;1.90;;;11.10;99.90;;;11.54;98.27;100422.97;5049300;28;20636;-67
2022/11/05 00:37:05;;;;;;;1.83;1.70;;;11.20;99.90;;;11.56;98.21;100413.25;5048406;28;20662;-67
2022/11/05 00:39:32;;;;;;;3.10;2.57;;;11.20;99.90;;;11.66;97.16;100416.78;5039641;28;20628;-67
2022/11/05 00:45:02;;;;;;;2.97;2.20;;;11.20;99.90;;;11.63;96.93;100430.91;5062649;28;20680;-68
2022/11/05 00:50:21;;;;;;;3.47;2.50;;;11.30;99.90;;;11.69;96.54;100435.66;5035347;28;20667;-66
2022/11/05 00:52:59;;;;;;;2.50;1.70;;;11.30;99.90;;;11.74;97.09;100432.69;5030039;28;20625;-68
2022/11/05 00:55:39;;;;;;;1.73;1.60;;;11.30;99.90;;;11.69;96.18;100437.47;5025566;28;20617;-68
2022/11/05 00:58:13;;;;;;;1.87;1.77;;;11.30;99.90;;;11.69;96.09;100430.44;5047543;28;20669;-67
2022/11/05 01:00:46;;;;;;;2.47;2.20;;;11.30;99.90;;;11.74;97.29;100429.25;5016324;28;20628;-68
2022/11/05 01:03:15;;;;;;;3.00;2.10;;;11.30;99.90;;;11.69;96.39;100429.63;5031104;28;21226;-68
2022/11/05 01:05:47;;;;;;;2.40;2.10;;;11.30;99.90;;;11.74;97.07;100431.84;5053359;28;20620;-68
2022/11/05 01:08:17;;;;;;;2.60;2.40;;;11.30;99.90;;;11.69;97.28;100440.09;5053569;28;20643;-67
2022/11/05 01:10:48;;;;;;;1.67;1.57;;;11.30;99.90;;;11.65;97.60;100443.84;5053947;28;20659;-67
2022/11/05 01:13:19;;;;;;;2.20;2.00;;;11.30;99.90;;;11.63;97.72;100438.75;5056788;28;21190;-68
2022/11/05 01:15:49;;;;;;;3.67;2.03;;;11.30;99.90;;;11.72;97.15;100439.00;5057703;28;20782;-68
2022/11/05 01:18:18;;;;;;;1.50;1.43;;;11.30;99.90;;;11.70;96.89;100444.34;5052697;28;21076;-68
2022/11/05 01:20:45;;;;;;;1.87;1.77;;;11.30;99.90;;;11.70;96.84;100433.91;5033031;28;20682;-68
2022/11/05 01:23:13;;;;;;;2.57;1.97;;;11.30;99.90;;;11.60;97.28;100444.22;5055757;28;20688;-67
2022/11/05 01:25:41;;;;;;;1.57;1.40;;;11.20;99.90;;;11.74;97.53;100447.53;5057170;28;20626;-67
2022/11/05 01:28:09;;;;;;;2.17;1.97;;;11.30;99.90;;;11.71;97.12;100443.41;5060396;28;20686;-67
2022/11/05 01:30:36;;;;;;;2.93;2.30;;;11.30;99.90;;;11.70;96.95;100452.19;5054857;28;20668;-68
2022/11/05 01:33:04;;;;;;;3.07;2.50;;;11.30;99.90;;;11.58;97.73;100450.53;5063930;28;20618;-68
2022/11/05 01:35:31;;;;;;;6.50;2.30;;;11.30;99.90;;;11.56;98.46;100449.81;5052514;28;20624;-67
2022/11/05 01:37:58;;;;;;;1.83;1.73;;;11.20;99.90;;;11.57;98.17;100448.84;5053813;28;21217;-68
2022/11/05 01:40:25;;;;;;;2.73;2.13;;;11.20;99.90;;;11.56;97.90;100455.03;5050604;28;20631;-68
2022/11/05 01:42:52;;;;;;;4.27;2.00;;;11.20;99.90;;;11.56;98.38;100465.50;5074004;28;20623;-66
2022/11/05 01:45:26;;;;;;;1.50;1.37;;;11.20;99.90;;;11.59;98.64;100465.25;5053935;28;20666;-67
2022/11/05 01:48:16;;;;;;;1.80;1.70;;;11.20;99.90;;;11.43;99.20;100475.25;5053714;28;20651;-66
2022/11/05 01:51:06;;;;;;;3.97;1.93;;;11.20;99.90;;;11.40;98.76;100475.47;5037627;28;20663;-66
2022/11/05 01:53:56;;;;;;;1.77;1.67;;;11.10;99.90;;;11.48;98.98;100476.53;5068125;28;20661;-66
2022/11/05 01:56:27;;;;;;;1.97;1.80;;;11.10;99.90;;;11.42;99.29;100478.78;5050302;28;20659;-67
2022/11/05 01:59:03;;;;;;;4.23;2.20;;;11.10;99.90;;;11.34;99.31;100484.63;5042925;28;20685;-67
2022/11/05 02:01:31;;;;;;;1.97;1.87;;;11.00;99.90;;;11.28;100.00;100486.88;5050980;28;20646;-66
2022/11/05 02:04:03;;;;;;;3.80;1.77;;;11.00;99.90;;;11.32;99.16;100478.69;5051717;28;20636;-68
2022/11/05 02:06:34;;;;;;;8.43;2.07;;;11.00;99.90;;;11.35;99.93;100488.88;5064558;28;20713;-67
2022/11/05 02:09:40;;;;;;;2.57;1.70;;;11.00;99.90;;;11.42;98.99;100494.47;5033387;28;20639;-68
2022/11/05 02:12:08;;;;;;;1.97;1.87;;;11.00;99.90;;;11.40;99.45;100493.75;5021245;28;21090;-67
2022/11/05 02:14:35;;;;;;;1.67;1.57;;;11.00;99.90;;;11.33;99.49;100492.59;5050526;28;20796;-67
2022/11/05 02:17:25;;;;;;;3.77;2.20;;;11.00;99.90;;;11.31;99.53;100491.84;5050200;28;20704;-69
2022/11/05 02:20:33;;;;;;;2.00;1.70;;;11.00;99.90;;;11.30;99.02;100492.81;5071607;28;20634;-67
2022/11/05 02:23:15;;;;;;;3.00;2.20;;;11.00;99.90;;;11.28;97.81;100497.31;4982564;28;20639;-67
2022/11/05 02:26:15;;;;;;;2.57;2.20;;;11.00;99.90;;;11.36;97.13;100495.78;4970340;28;21486;-68
2022/11/05 02:29:34;;;;;;;3.93;2.57;;;11.00;99.90;;;11.34;96.35;100502.91;5041643;28;20635;-67
2022/11/05 02:32:32;;;;;;;2.53;2.33;;;10.90;99.90;;;11.35;95.94;100503.75;5062581;28;20664;-67
2022/11/05 02:35:21;;;;;;;1.97;1.63;;;11.00;99.90;;;11.39;95.91;100511.19;5031114;28;20636;-67
2022/11/05 02:38:05;;;;;;;4.30;3.13;;;11.00;99.90;;;11.36;95.27;100515.84;5033039;28;20697;-68
2022/11/05 02:40:43;;;;;;;3.03;2.00;;;11.00;99.90;;;11.33;95.08;100516.91;5050809;28;21261;-69
2022/11/05 02:43:46;;;;;;;8.23;1.53;;;11.00;99.90;;;11.36;94.84;100521.06;5034367;28;20637;-67
2022/11/05 02:46:31;;;;;;;3.37;2.80;;;11.00;99.90;;;11.33;95.22;100522.13;5045468;28;20656;-67
2022/11/05 02:49:25;;;;;;;3.37;2.50;;;10.90;99.90;;;11.29;94.24;100522.47;5051729;28;21041;-67
2022/11/05 02:51:57;;;;;;;11.43;2.70;;;10.90;99.90;;;11.31;93.90;100526.63;5035781;28;20706;-67
2022/11/05 02:54:35;;;;;;;2.83;2.60;;;10.90;99.90;;;11.32;94.27;100530.94;5044014;28;20710;-67
2022/11/05 02:57:03;;;;;;;3.40;3.10;;;10.90;99.90;;;11.36;93.36;100536.72;5060587;28;21049;-67
2022/11/05 02:59:30;;;;;;;4.13;2.70;;;10.90;99.90;;;11.38;92.92;100529.63;5053383;28;20632;-67
2022/11/05 03:01:59;;;;;;;6.23;3.90;;;10.90;99.90;;;11.32;93.70;100527.47;5051478;28;20999;-67
2022/11/05 03:04:27;;;;;;;4.67;3.30;;;10.90;99.90;;;11.34;93.08;100523.81;5051617;28;20735;-67
2022/11/05 03:07:30;;;;;;;2.63;2.43;;;10.90;99.90;;;11.40;93.17;100527.72;5035949;28;20644;-68
2022/11/05 03:10:17;;;;;;;2.40;1.90;;;11.00;99.90;;;11.39;93.61;100529.47;5034265;28;20627;-67
2022/11/05 03:13:09;;;;;;;8.70;2.37;;;10.90;99.90;;;11.47;92.31;100534.13;5051260;28;20686;-67
2022/11/05 03:16:28;;;;;;;4.10;2.77;;;11.00;99.90;;;11.36;93.38;100542.81;5066244;28;20713;-68
2022/11/05 03:19:23;;;;;;;3.70;2.43;;;11.00;99.90;;;11.45;93.03;100530.81;4973318;28;20689;-68
2022/11/05 03:22:01;;;;;;;3.10;2.10;;;11.00;99.90;;;11.43;93.04;100535.31;5012592;28;20679;-67
2022/11/05 03:24:35;;;;;;;4.87;3.07;;;11.00;99.90;;;11.22;94.54;100536.97;5053239;28;21328;-67
2022/11/05 03:27:19;;;;;;;4.97;2.80;;;11.00;99.90;;;11.13;94.61;100545.50;5063567;28;21244;-67
2022/11/05 03:29:53;;;;;;;5.93;2.70;;;10.90;99.90;;;11.21;94.33;100548.34;5036342;28;20644;-67
2022/11/05 03:32:21;;;;;;;2.40;2.00;;;10.90;99.90;;;11.31;93.85;100550.13;5042384;28;20658;-68
2022/11/05 03:35:00;;;;;;;1.70;1.60;;;10.90;99.90;;;11.41;93.00;100556.34;5041589;28;20621;-67
2022/11/05 03:37:33;;;;;;;4.90;3.03;;;11.00;99.90;;;11.36;92.60;100568.09;5038252;28;20659;-66
2022/11/05 03:40:05;;;;;;;4.50;2.20;;;11.00;99.90;;;11.43;92.06;100566.69;5056637;28;20622;-67
2022/11/05 03:42:36;;;;;;;3.00;2.70;;;11.00;99.90;;;11.33;92.57;100570.94;5048736;28;20636;-67
2022/11/05 03:45:15;;;;;;;3.60;2.87;;;11.00;99.90;;;11.37;90.53;100578.41;5059077;28;20665;-67
2022/11/05 03:47:45;;;;;;;9.90;3.40;;;10.90;99.90;;;11.24;90.63;100584.69;5037740;28;21234;-68
2022/11/05 03:50:37;;;;;;;3.03;2.73;;;10.90;99.90;;;11.21;90.13;100577.06;5021613;28;21045;-67
2022/11/05 03:53:24;;;;;;;3.77;2.53;;;10.90;99.90;;;11.23;90.08;100583.00;5045864;28;20635;-67
2022/11/05 03:56:17;;;;;;;4.10;3.30;;;10.90;99.90;;;11.12;90.50;100585.59;5048730;28;20651;-68
2022/11/05 03:58:46;;;;;;;2.77;2.20;;;10.80;99.90;;;11.14;90.09;100588.94;5041913;28;20638;-67
2022/11/05 04:01:13;;;;;;;3.10;2.63;;;10.80;99.90;;;11.04;89.96;100588.78;5069964;28;20626;-67
2022/11/05 04:03:40;;;;;;;2.17;2.03;;;10.80;99.90;;;11.17;88.76;100597.38;5043546;28;20646;-67
2022/11/05 04:14:26;;;;;;;2.10;1.90;;;10.80;99.90;;;11.22;88.55;100607.47;5050736;28;20628;-67
2022/11/05 04:17:08;;;;;;;2.77;1.73;;;10.80;99.90;;;11.23;88.13;100606.50;5049812;28;20660;-67
2022/11/05 04:25:18;;;;;;;1.97;1.87;;;10.90;99.90;;;11.27;88.70;100613.16;5048973;28;20635;-70
2022/11/05 04:27:45;;;;;;;1.00;1.00;;;10.90;99.90;;;11.24;88.43;100616.03;5051175;28;20695;-67
2022/11/05 04:30:19;;;;;;;2.27;1.57;;;10.90;99.90;;;11.33;87.23;100617.97;5040009;28;21029;-67
2022/11/05 04:32:58;;;;;;;1.73;1.13;;;10.90;99.90;;;11.18;88.79;100622.53;5032928;28;20619;-67
2022/11/05 04:35:41;;;;;;;1.50;1.40;;;10.90;99.90;;;11.24;88.48;100626.47;5051019;28;21285;-67
2022/11/05 04:38:15;;;;;;;0.73;0.73;;;10.90;99.90;;;11.19;87.91;100628.59;5054877;28;21206;-67
2022/11/05 04:40:43;;;;;;;2.23;1.97;;;10.80;99.90;;;11.22;88.06;100625.75;5054185;28;20615;-68
2022/11/05 04:43:14;;;;;;;1.57;1.57;;;10.80;99.90;;;11.25;87.40;100625.50;5040794;28;20690;-66
2022/11/05 04:45:42;;;;;;;1.80;1.70;;;10.80;99.90;;;11.22;86.54;100626.56;5015426;28;20636;-67
2022/11/05 04:48:09;;;;;;;1.70;1.60;;;10.80;99.90;;;11.14;86.54;100628.13;5052881;28;21196;-68
2022/11/05 04:50:37;;;;;;;1.70;1.60;;;10.80;99.90;;;11.12;86.78;100632.59;5034671;28;20632;-67
2022/11/05 04:53:03;;;;;;;2.47;1.83;;;10.80;99.90;;;11.13;86.91;100624.66;5053690;28;20627;-68
2022/11/05 04:55:30;;;;;;;1.40;1.30;;;10.70;99.90;;;11.12;86.30;100638.66;5053146;28;20616;-66
2022/11/05 04:57:57;;;;;;;2.70;1.60;;;10.70;99.90;;;10.93;86.89;100640.94;5035486;28;20650;-68
2022/11/05 05:00:24;;;;;;;1.30;1.23;;;10.70;99.90;;;10.99;86.93;100637.09;5036311;28;20635;-68
2022/11/05 05:02:51;;;;;;;0.97;0.97;;;10.70;99.90;;;11.12;87.22;100633.44;5052272;28;21208;-67
2022/11/05 05:05:20;;;;;;;1.50;1.37;;;10.70;99.90;;;10.99;87.25;100639.69;5052228;28;22218;-67
2022/11/05 05:07:46;;;;;;;1.00;1.00;;;10.70;99.90;;;10.97;87.63;100639.78;5052756;28;20643;-67
2022/11/05 05:10:13;;;;;;;1.30;1.27;;;10.60;99.90;;;11.01;88.02;100643.03;5052700;28;20632;-69
2022/11/05 05:12:40;;;;;;;1.77;1.30;;;10.60;99.90;;;10.98;89.06;100646.69;5053534;28;20663;-67
2022/11/05 05:15:08;;;;;;;1.27;1.00;;;10.60;99.90;;;11.08;87.45;100652.03;5045356;28;20685;-67
2022/11/05 05:17:35;;;;;;;1.07;1.07;;;10.60;99.90;;;10.99;88.49;100655.34;5035834;28;20651;-65
2022/11/05 05:22:53;;;;;;;0.50;0.50;;;10.60;99.90;;;11.03;87.78;100662.81;5052967;28;20635;-68
2022/11/05 05:25:21;;;;;;;1.00;1.00;;;10.60;99.90;;;10.96;88.61;100659.00;5053555;28;20670;-67
2022/11/05 05:27:48;;;;;;;1.20;1.20;;;10.60;99.90;;;10.86;88.42;100658.84;5057452;28;21036;-66
2022/11/05 05:30:15;;;;;;;1.30;1.00;;;10.50;99.90;;;10.81;88.75;100663.56;5067057;28;20647;-67
2022/11/05 05:32:41;;;;;;;0.50;0.50;;;10.50;99.90;;;10.88;88.39;100664.78;5070698;28;20716;-68
2022/11/05 05:35:08;;;;;;;3.07;1.23;;;10.50;99.90;;;10.85;88.32;100667.63;5048318;28;20702;-67
2022/11/05 05:37:35;;;;;;;1.10;1.00;;;10.40;99.90;;;10.85;88.98;100678.06;5062277;28;20716;-67
2022/11/05 05:40:03;;;;;;;1.20;1.17;;;10.50;99.90;;;10.97;89.15;100675.53;5040294;28;20625;-68
2022/11/05 05:42:30;;;;;;;0.80;0.80;;;10.50;99.90;;;10.94;89.50;100681.78;5059918;28;20640;-67
2022/11/05 05:44:57;;;;;;;0.70;0.50;;;10.50;99.90;;;10.91;89.00;100675.00;5067250;28;20701;-67
2022/11/05 05:47:23;;;;;;;0.80;0.80;;;10.50;99.90;;;10.85;90.01;100683.28;5049384;28;20644;-67
2022/11/05 05:49:51;;;;;;;0.70;0.70;;;10.50;99.90;;;10.97;89.10;100689.38;5051593;28;20683;-67
2022/11/05 05:52:18;;;;;;;1.57;0.80;;;10.50;99.90;;;10.93;89.42;100696.63;5056671;28;21011;-67
2022/11/05 05:54:45;;;;;;;2.03;1.10;;;10.50;99.90;;;10.87;89.73;100699.69;5037491;28;20627;-67
2022/11/05 05:57:12;;;;;;;0.97;0.80;;;10.50;99.90;;;10.86;89.53;100700.59;5053527;28;21045;-67
2022/11/05 05:59:38;;;;;;;1.00;1.00;;;10.50;99.90;;;10.87;89.92;100699.69;5039995;28;20625;-69
2022/11/05 06:02:05;;;;;;;1.10;1.00;;;10.40;99.90;;;10.81;90.73;100707.94;5049917;28;21203;-67
2022/11/05 06:04:33;;;;;;;1.10;1.10;;;10.40;99.90;;;10.88;89.52;100703.94;5036710;28;20632;-68
2022/11/05 06:06:59;;;;;;;1.20;1.10;;;10.40;99.90;;;10.95;90.09;100714.78;5051173;28;20640;-67
2022/11/05 06:09:26;;;;;;;1.87;1.77;;;10.50;99.90;;;10.86;89.26;100716.25;5063728;28;20875;-68
2022/11/05 06:11:53;;;;;;;1.77;1.77;;;10.50;99.90;;;10.92;89.11;100713.22;5051424;28;20797;-67
2022/11/05 06:14:20;;;;;;;1.67;1.57;;;10.50;99.90;;;10.82;89.40;100717.44;5052083;28;20663;-67
2022/11/05 06:16:47;;;;;;;3.37;2.30;;;10.40;99.90;;;10.65;90.18;100720.41;5044632;28;20713;-69
2022/11/05 06:19:13;;;;;;;2.57;2.37;;;10.40;99.90;;;10.80;89.94;100728.91;5031886;28;20964;-67
2022/11/05 06:21:40;;;;;;;2.27;2.03;;;10.40;99.90;;;10.73;89.68;100730.31;5035149;28;21208;-66
2022/11/05 06:24:08;;;;;;;1.57;1.50;;;10.40;99.90;;;10.76;89.24;100736.13;5052735;28;20628;-68
2022/11/05 06:26:34;;;;;;;2.10;1.70;;;10.40;99.90;;;10.80;88.55;100741.97;5031503;28;20636;-68
2022/11/05 06:29:01;;;;;;;5.13;2.20;;;10.40;99.90;;;10.85;88.40;100745.94;5032612;28;20613;-68
2022/11/05 06:31:28;;;;;;;1.00;1.00;;;10.40;99.90;;;10.80;88.34;100748.03;5046030;28;21300;-68
2022/11/05 06:33:55;;;;;;;1.67;1.50;;;10.40;99.90;;;10.83;89.41;100760.03;5054183;28;20670;-70
2022/11/05 06:36:22;;;;;;;1.00;1.00;;;10.40;99.90;;;10.84;89.01;100761.69;5060363;28;20664;-67
2022/11/05 06:38:49;;;;;;;1.17;0.90;;;10.40;99.90;;;10.75;89.90;100764.97;5050736;28;20636;-67
2022/11/05 06:41:16;;;;;;;1.40;1.10;;;10.40;99.90;;;10.83;90.49;100766.09;5063632;28;20627;-68
2022/11/05 06:43:42;;;;;;;2.20;1.00;;;10.40;99.90;;;10.88;89.40;100773.59;5042287;28;20625;-67
2022/11/05 06:46:11;;;;;;;1.87;1.50;;;10.50;99.90;;;10.87;90.11;100770.16;5049417;28;20674;-69
2022/11/05 06:48:39;;;;;;;1.47;1.37;;;10.50;99.90;;;10.84;90.10;100772.97;5039140;28;20646;-70
2022/11/05 06:51:07;;;;;;;1.43;1.33;;;10.50;99.90;;;10.87;90.97;100782.38;5050625;28;20701;-67
2022/11/05 06:53:34;;;;;;;1.70;1.57;;;10.50;99.90;;;10.91;90.51;100770.75;5050608;28;20628;-67
2022/11/05 06:56:06;;;;;;;1.43;1.33;;;10.50;99.90;;;10.98;90.39;100779.00;5041608;28;21255;-69
2022/11/05 06:58:33;;;;;;;1.77;1.67;;;10.50;99.90;;;10.95;89.70;100780.03;5045345;28;20651;-67
2022/11/05 07:01:09;;;;;;;1.40;1.30;;;10.60;99.90;;;11.04;89.74;100784.63;5066381;28;20704;-68
2022/11/05 07:03:37;;;;;;;2.87;1.50;;;10.60;99.90;;;11.01;89.92;100784.81;5067119;28;20629;-68
2022/11/05 07:06:06;;;;;;;1.60;1.57;;;10.60;99.90;;;10.99;89.91;100789.31;5069027;28;20642;-67
2022/11/05 07:08:34;;;;;;;3.37;1.50;;;10.60;99.90;;;11.05;90.48;100793.28;5051200;28;20960;-68
2022/11/05 07:11:02;;;;;;;4.50;1.60;;;10.60;99.90;;;10.97;90.38;100793.00;5032349;28;20628;-66
2022/11/05 07:13:29;;;;;;;3.03;2.00;;;10.60;99.90;;;10.89;90.16;100803.97;5054882;28;20627;-68
2022/11/05 07:15:56;;;;;;;4.73;1.57;;;10.60;99.90;;;10.87;91.11;100796.25;5044515;28;20652;-68
2022/11/05 07:18:23;;;;;;;1.50;1.33;;;10.60;99.90;;;11.03;89.95;100809.03;5041561;28;20707;-67
2022/11/05 07:20:50;;;;;;;2.83;2.13;;;10.60;99.90;;;11.05;89.71;100816.78;5020959;28;20620;-68
2022/11/05 07:23:17;;;;;;;3.90;1.70;;;10.70;99.90;;;11.01;89.83;100817.94;5048944;28;21258;-67
2022/11/05 07:25:45;;;;;;;2.60;1.90;;;10.60;99.90;;;11.15;88.89;100825.63;5049526;28;20654;-68
2022/11/05 07:28:13;;;;;;;1.63;1.50;;;10.70;99.90;;;11.10;89.12;100827.72;5050693;28;20638;-67
2022/11/05 07:30:40;;;;;;;1.97;1.83;;;10.70;99.90;;;10.91;90.38;100831.66;5045714;28;20618;-68
2022/11/05 07:33:07;;;;;;;2.47;1.60;;;10.60;99.90;;;10.90;89.72;100837.78;5056605;28;20786;-68
2022/11/05 07:35:35;;;;;;;4.50;1.70;;;10.60;99.90;;;11.11;88.86;100835.47;5034575;28;20619;-68
2022/11/05 07:38:02;;;;;;;2.27;2.07;;;10.70;99.90;;;11.20;88.51;100841.81;5057426;28;20635;-67
2022/11/05 07:40:29;;;;;;;4.10;2.47;;;10.70;99.90;;;11.24;88.66;100840.66;5062163;28;20615;-68
2022/11/05 07:42:59;;;;;;;3.67;2.07;;;10.80;99.90;;;11.46;86.53;100846.00;5032042;28;20633;-68
2022/11/05 07:45:29;;;;;;;5.30;1.60;;;10.90;99.90;;;11.51;85.96;100854.34;5030942;28;20625;-66
2022/11/05 07:47:59;;;;;;;3.77;2.17;;;11.00;99.90;;;11.74;85.20;100853.53;5027337;28;20650;-67
2022/11/05 07:50:33;;;;;;;2.00;1.80;;;11.10;99.90;;;11.84;84.27;100854.50;5047155;28;20638;-67
2022/11/05 07:53:02;;;;;;;1.93;1.83;;;11.20;99.90;;;11.94;84.29;100859.91;5049343;28;20666;-67
2022/11/05 07:55:30;;;;;;;6.47;1.90;;;11.30;99.90;;;11.87;84.85;100863.91;5049971;28;20627;-68
2022/11/05 07:57:57;;;;;;;5.03;2.57;;;11.40;99.90;;;11.87;84.39;100870.00;5047088;28;21067;-66
2022/11/05 08:00:25;;;;;;;2.67;1.93;;;11.40;99.90;;;12.06;83.71;100862.44;5043010;28;20677;-68
2022/11/05 08:03:15;;;;;;;3.53;2.33;;;11.50;99.90;;;12.15;83.54;100871.41;5049918;28;21214;-67
2022/11/05 08:05:45;;;;;;;4.57;2.20;;;11.60;99.90;;;12.36;81.50;100878.47;5024016;28;20635;-68
2022/11/05 08:08:16;;;;;;;2.57;2.37;;;11.70;99.90;;;12.54;81.22;100888.50;5028559;28;20625;-68
2022/11/05 08:10:43;;;;;;;1.97;1.77;;;11.80;99.90;;;12.82;79.61;100888.06;5014545;28;20632;-67
2022/11/05 08:13:14;;;;;;;2.27;1.83;;;12.00;99.90;;;13.20;78.80;100893.81;5034036;28;20709;-68
2022/11/05 08:15:42;;;;;;;4.27;2.70;;;12.20;99.90;;;13.53;76.59;100888.50;5066120;28;20620;-66
2022/11/05 08:18:16;;;;;;;2.90;2.33;;;12.50;99.90;;;13.85;74.77;100892.00;5055677;28;21184;-67
2022/11/05 08:20:45;;;;;;;2.63;1.93;;;12.80;99.90;;;13.97;73.77;100898.84;5042396;28;20682;-68
2022/11/05 08:23:13;;;;;;;2.73;1.97;;;13.00;99.90;;;14.16;72.91;100897.34;5053302;28;21260;-67
2022/11/05 08:25:42;;;;;;;3.67;2.60;;;13.10;99.90;;;14.02;72.91;100899.31;5053538;28;20671;-69
2022/11/05 08:28:11;;;;;;;6.60;2.60;;;13.10;99.90;;;13.92;73.37;100903.66;5051484;28;21308;-68
2022/11/05 08:30:39;;;;;;;2.33;2.13;;;13.10;99.90;;;13.90;73.46;100904.72;5056845;28;21000;-67
2022/11/05 08:33:11;;;;;;;3.00;2.40;;;13.10;99.90;;;13.92;73.70;100908.06;5059140;28;20668;-66
2022/11/05 08:35:39;;;;;;;2.60;2.40;;;13.10;99.90;;;13.88;73.79;100912.69;5036481;28;20620;-68
2022/11/05 08:38:12;;;;;;;3.20;2.30;;;13.10;99.90;;;13.91;73.27;100911.63;5054732;28;20639;-66
2022/11/05 08:40:40;;;;;;;3.70;2.77;;;13.10;99.90;;;14.03;73.01;100910.66;5049035;28;20627;-68
2022/11/05 08:43:09;;;;;;;2.70;2.37;;;13.10;99.90;;;14.40;71.70;100913.69;5047652;28;20663;-67
2022/11/05 08:45:38;;;;;;;4.10;2.57;;;13.20;99.90;;;15.26;69.51;100920.25;5051235;28;20722;-68
2022/11/05 08:48:13;;;;;;;6.67;3.20;;;13.70;99.90;;;16.87;64.14;100925.75;5014884;28;20637;-67
2022/11/05 08:50:41;;;;;;;5.33;2.90;;;14.50;99.90;;;19.46;56.21;100926.34;5051066;28;20635;-67
2022/11/05 08:53:09;;;;;;;2.63;2.37;;;15.90;99.90;;;21.87;49.18;100927.91;5060890;28;20693;-67
2022/11/05 08:55:37;;;;;;;5.70;2.70;;;17.60;99.90;;;22.87;45.89;100928.38;5048195;28;20624;-66
2022/11/05 08:58:14;;;;;;;4.50;3.30;;;18.70;99.90;;;22.72;45.38;100924.88;5057985;28;21445;-67
2022/11/05 09:00:42;;;;;;;5.67;2.90;;;19.30;99.90;;;22.12;45.94;100929.38;5039300;28;21003;-66
2022/11/05 09:03:10;;;;;;;2.33;2.23;;;19.30;99.90;;;20.92;48.53;100917.47;5023172;28;20674;-67
2022/11/05 09:05:39;;;;;;;3.23;2.93;;;18.90;99.90;;;20.00;51.07;100931.09;5052709;28;20627;-66
2022/11/05 09:08:10;;;;;;;4.20;2.00;;;18.40;99.90;;;20.26;49.50;100926.50;5065323;28;20638;-66
2022/11/05 09:10:38;;;;;;;2.70;2.37;;;18.30;99.90;;;19.72;51.74;100929.72;5053492;28;20642;-68
2022/11/05 09:13:06;;;;;;;2.40;2.20;;;18.00;99.90;;;18.99;53.54;100915.34;5055473;28;20671;-66
2022/11/05 09:15:41;;;;;;;7.17;3.30;;;17.70;99.90;;;18.34;55.69;100929.91;5020926;28;20693;-66
2022/11/05 09:18:12;;;;;;;5.93;2.77;;;17.30;99.90;;;18.63;54.68;100921.75;5052152;28;20650;-66
2022/11/05 09:20:39;;;;;;;7.03;3.00;;;17.20;99.90;;;18.88;54.34;100926.19;5050866;28;20666;-66
2022/11/05 09:23:09;;;;;;;2.73;2.37;;;17.20;99.90;;;18.80;54.20;100928.78;5038788;28;20658;-66
2022/11/05 09:25:36;;;;;;;3.33;2.80;;;17.20;99.90;;;18.96;53.80;100934.16;5072944;28;20618;-66
2022/11/05 09:28:16;;;;;;;3.13;2.70;;;17.20;99.90;;;18.76;53.74;100932.72;5034614;28;20642;-67
2022/11/05 09:30:47;;;;;;;4.00;3.00;;;17.10;99.90;;;18.16;55.00;100929.94;5048380;28;20634;-67
2022/11/05 09:33:17;;;;;;;4.57;3.10;;;16.80;99.90;;;18.25;56.26;100931.63;5047842;28;20667;-67
2022/11/05 09:35:44;;;;;;;3.00;2.33;;;16.70;99.90;;;19.61;51.77;100941.44;5057944;28;20626;-67
2022/11/05 09:38:11;;;;;;;4.83;3.33;;;17.30;99.90;;;19.55;51.64;100947.34;5052212;28;20636;-68
2022/11/05 09:41:08;;;;;;;2.30;2.10;;;17.40;99.90;;;18.98;52.86;100942.75;5058144;28;21214;-67
2022/11/05 09:43:45;;;;;;;2.83;2.63;;;17.30;99.90;;;18.93;53.59;100950.34;5043932;28;20688;-69
2022/11/05 09:46:28;;;;;;;2.73;2.13;;;17.20;99.90;;;19.45;52.48;100954.59;5037563;28;20665;-69
2022/11/05 09:49:05;;;;;;;2.63;2.40;;;17.40;99.90;;;20.20;50.27;100956.31;5031724;28;20628;-73
2022/11/05 09:51:34;;;;;;;3.60;2.80;;;17.80;99.90;;;20.08;50.12;100953.13;5041197;28;20673;-69
2022/11/05 09:54:04;;;;;;;4.37;3.03;;;18.00;99.90;;;20.98;48.72;100960.06;5054802;28;20766;-70
2022/11/05 09:56:36;;;;;;;5.20;3.23;;;18.40;99.90;;;25.34;41.15;100963.13;5052829;28;20650;-69
2022/11/05 09:59:25;;;;;;;3.50;2.80;;;20.30;99.90;;;30.78;31.43;100976.06;5051243;28;20639;-69
2022/11/05 10:02:07;;;;;;;5.20;2.77;;;23.40;96.20;;;;;;5040114;28;20619;-69
2022/11/05 10:04:35;;;;;;;4.70;3.70;;;26.50;86.70;;;36.72;nan;100972.94;5058319;28;20725;-68
2022/11/05 10:07:04;;;;;;;4.73;3.33;;;28.90;72.80;;;38.53;nan;100969.31;5059860;28;20652;-72
2022/11/05 10:09:44;;;;;;;3.73;3.20;;;30.70;64.70;;;40.06;nan;100965.28;5033826;28;20629;-70
2022/11/05 10:12:19;;;;;;;3.17;2.93;;;32.10;58.70;;;40.87;nan;100964.72;5050710;28;20740;-70
2022/11/05 10:15:15;;;;;;;4.70;3.10;;;33.20;54.60;;;41.10;nan;100970.31;5033218;28;21011;-69
2022/11/05 10:17:48;;;;;;;3.63;3.43;;;34.00;52.20;;;39.10;nan;100954.00;5044511;28;20652;-69
2022/11/05 10:20:36;;;;;;;8.33;5.47;;;33.60;50.50;;;33.20;nan;100951.78;5031826;28;20647;-65
2022/11/05 10:23:09;;;;;;;14.47;11.07;;;31.00;51.70;;;;;;5051429;28;20662;-65
2022/11/05 10:25:40;;;;;;;8.53;7.20;;;28.10;54.80;;;;;;5050416;28;20983;-68
2022/11/05 10:28:14;;;;;;;4.33;3.70;;;25.70;58.10;;;;;;5053066;28;21217;-68
2022/11/05 10:30:44;;;;;;;4.83;3.20;;;23.70;62.10;;;21.94;nan;100945.59;5049261;28;20629;-67
2022/11/05 10:33:17;;;;;;;3.50;2.83;;;22.00;66.00;;;20.56;nan;100959.47;5035410;28;20668;-65
2022/11/05 10:35:53;;;;;;;5.03;2.47;;;20.60;70.00;;;19.72;nan;100956.22;5039364;28;21202;-67
2022/11/05 10:38:20;;;;;;;4.97;3.50;;;19.60;74.20;;;19.05;nan;100955.22;5041961;28;20623;-68
2022/11/05 10:41:06;;;;;;;3.80;3.40;;;18.80;79.30;;;18.52;nan;100957.16;5056367;28;20662;-67
2022/11/05 10:43:48;;;;;;;5.90;3.00;;;18.20;85.00;;;18.21;nan;100963.78;5042416;28;20614;-67
2022/11/05 10:46:41;;;;;;;6.93;2.90;;;17.70;90.20;;;17.70;nan;100957.34;5035220;28;20777;-68
2022/11/05 10:49:40;;;;;;;3.70;2.50;;;17.10;93.00;;;17.36;nan;100960.66;5052954;28;20636;-68
2022/11/05 10:52:36;;;;;;;3.00;2.20;;;16.80;95.70;;;17.00;nan;100960.53;5051533;28;20604;-66
2022/11/05 10:55:48;;;;;;;2.10;2.00;;;16.30;98.40;;;16.54;nan;100967.56;5033842;28;20624;-69
2022/11/05 10:58:15;;;;;;;2.63;2.10;;;16.10;99.80;;;16.39;nan;100964.50;5012739;28;20689;-69
2022/11/05 11:01:06;;;;;;;2.33;2.13;;;15.80;99.90;;;16.14;nan;100965.06;5051384;28;21245;-69
2022/11/05 11:03:47;;;;;;;3.47;1.87;;;15.50;99.90;;;15.96;nan;100964.06;5050874;28;20628;-70
2022/11/05 11:06:37;;;;;;;1.60;1.50;;;15.30;99.90;;;15.69;nan;100966.50;5033082;28;20671;-69
2022/11/05 11:09:18;;;;;;;1.90;1.80;;;15.10;99.90;;;15.61;nan;100961.91;5036155;28;20978;-68
2022/11/05 11:11:45;;;;;;;8.37;2.63;;;15.00;99.90;;;15.43;nan;100953.84;5045894;28;20627;-69
2022/11/05 11:14:12;;;;;;;2.70;2.50;;;14.90;99.90;;;15.29;nan;100951.53;5032972;28;20668;-69
2022/11/05 11:16:49;;;;;;;5.50;3.07;;;14.70;99.90;;;15.27;nan;100945.56;5051575;28;20753;-68
2022/11/05 11:19:29;;;;;;;6.30;2.60;;;14.70;99.90;;;15.12;nan;100946.06;5034071;28;20632;-69
2022/11/05 11:22:02;;;;;;;2.30;2.10;;;14.60;99.90;;;14.99;nan;100954.16;5013748;28;20628;-69